createdAt,value
2022-11-24T00:01:06.991Z,100363.25
2022-11-24T00:03:33.715Z,100365.75
2022-11-24T00:06:08.883Z,100366.63
2022-11-24T00:08:35.604Z,100347.41
2022-11-24T00:11:11.457Z,100352.75
2022-11-24T00:13:41.217Z,100367.72
2022-11-24T00:16:19.687Z,100376.56
2022-11-24T00:18:48.266Z,100387.03
2022-11-24T00:21:16.766Z,100398.47
2022-11-24T00:23:44.279Z,100395.84
2022-11-24T00:26:16.595Z,100394.16
2022-11-24T00:28:44.315Z,100395.84
2022-11-24T00:31:17.845Z,100383.66
2022-11-24T00:33:46.178Z,100390.59
2022-11-24T00:36:13.037Z,100386.19
2022-11-24T00:38:39.523Z,100386.28
2022-11-24T00:41:06.414Z,100387.22
2022-11-24T00:43:33.291Z,100387.22
2022-11-24T00:45:59.907Z,100389.09
2022-11-24T00:48:26.548Z,100391.63
2022-11-24T00:51:04.426Z,100397.69
2022-11-24T00:53:30.971Z,100398.63
2022-11-24T00:55:57.393Z,100405.56
2022-11-24T00:58:24.707Z,100409.97
2022-11-24T01:00:52.386Z,100411.75
2022-11-24T01:03:20.210Z,100411.94
2022-11-24T01:05:46.756Z,100412.13
2022-11-24T01:08:13.142Z,100421.66
2022-11-24T01:10:39.754Z,100420.63
2022-11-24T01:13:06.258Z,100425.97
2022-11-24T01:15:35.583Z,100414.75
2022-11-24T01:18:02.772Z,100420.00
2022-11-24T01:20:30.486Z,100431.41
2022-11-24T01:22:57.001Z,100439.28
2022-11-24T01:25:23.663Z,100431.31
2022-11-24T01:27:50.079Z,100434.75
2022-11-24T01:30:16.768Z,100433.09
2022-11-24T01:32:43.134Z,100433.09
2022-11-24T01:35:09.922Z,100442.63
2022-11-24T01:37:36.301Z,100437.59
2022-11-24T01:40:02.727Z,100435.06
2022-11-24T01:42:40.310Z,100436.66
2022-11-24T01:45:30.959Z,100437.47
2022-11-24T01:47:57.512Z,100440.19
2022-11-24T01:50:24.575Z,100443.75
2022-11-24T01:52:54.154Z,100445.44
2022-11-24T01:55:25.623Z,100438.34
2022-11-24T01:57:59.292Z,100442.63
2022-11-24T02:00:25.865Z,100449.66
2022-11-24T02:02:53.008Z,100447.97
2022-11-24T02:05:28.223Z,100453.31
2022-11-24T02:07:56.894Z,100459.31
2022-11-24T02:10:23.645Z,100449.84
2022-11-24T02:12:52.495Z,100451.53
2022-11-24T02:15:19.988Z,100456.03
2022-11-24T02:17:46.388Z,100461.28
2022-11-24T02:20:13.957Z,100462.28
2022-11-24T02:23:03.336Z,100462.28
2022-11-24T02:25:50.400Z,100472.00
2022-11-24T02:28:20.852Z,100459.00
2022-11-24T02:30:48.190Z,100479.16
2022-11-24T02:33:15.231Z,100472.22
2022-11-24T02:35:41.998Z,100480.06
2022-11-24T02:38:12.656Z,100476.59
2022-11-24T02:40:41.247Z,100478.38
2022-11-24T02:43:12.343Z,100481.84
2022-11-24T02:45:39.038Z,100481.19
2022-11-24T02:48:05.834Z,100481.94
2022-11-24T02:50:32.438Z,100490.72
2022-11-24T02:52:58.815Z,100485.41
2022-11-24T02:55:25.421Z,100480.34
2022-11-24T02:57:51.871Z,100488.09
2022-11-24T03:00:18.750Z,100484.56
2022-11-24T03:02:45.289Z,100492.50
2022-11-24T03:05:12.591Z,100481.19
2022-11-24T03:07:39.130Z,100485.56
2022-11-24T03:10:06.187Z,100484.75
2022-11-24T03:12:32.588Z,100480.34
2022-11-24T03:14:58.992Z,100469.19
2022-11-24T03:17:25.396Z,100481.34
2022-11-24T03:19:51.773Z,100491.84
2022-11-24T03:22:18.193Z,100490.16
2022-11-24T03:24:44.625Z,100499.78
2022-11-24T03:27:11.010Z,100484.84
2022-11-24T03:29:37.367Z,100486.78
2022-11-24T03:32:04.012Z,100497.09
2022-11-24T03:34:30.412Z,100497.09
2022-11-24T03:36:56.811Z,100494.56
2022-11-24T03:39:23.194Z,100499.78
2022-11-24T03:41:51.376Z,100491.84
2022-11-24T03:44:18.264Z,100500.47
2022-11-24T03:46:45.104Z,100500.63
2022-11-24T03:49:11.632Z,100494.56
2022-11-24T03:51:38.003Z,100504.78
2022-11-24T03:54:04.515Z,100506.53
2022-11-24T03:56:30.923Z,100516.19
2022-11-24T03:58:57.292Z,100503.19
2022-11-24T04:01:23.688Z,100518.63
2022-11-24T04:03:50.134Z,100514.50
2022-11-24T04:06:16.536Z,100509.25
2022-11-24T04:08:43.447Z,100518.03
2022-11-24T04:11:29.869Z,100531.06
2022-11-24T04:13:56.256Z,100521.59
2022-11-24T04:16:22.624Z,100530.22
2022-11-24T04:18:52.138Z,100530.31
2022-11-24T04:21:18.592Z,100542.56
2022-11-24T04:23:44.982Z,100541.53
2022-11-24T04:26:11.415Z,100542.41
2022-11-24T04:28:38.456Z,100545.94
2022-11-24T04:31:06.231Z,100549.50
2022-11-24T04:33:33.084Z,100559.13
2022-11-24T04:35:59.523Z,100546.97
2022-11-24T04:39:20.051Z,100559.97
2022-11-24T04:41:12.166Z,100557.44
2022-11-24T04:43:40.734Z,100564.53
2022-11-24T04:46:10.563Z,100569.78
2022-11-24T04:48:37.106Z,100576.72
2022-11-24T04:51:07.104Z,100574.34
2022-11-24T04:53:33.487Z,100585.69
2022-11-24T04:55:59.868Z,100591.75
2022-11-24T04:58:26.172Z,100587.44
2022-11-24T05:00:52.500Z,100595.41
2022-11-24T05:03:18.843Z,100607.66
2022-11-24T05:05:45.163Z,100606.16
2022-11-24T05:08:11.539Z,100618.31
2022-11-24T05:10:38.003Z,100611.41
2022-11-24T05:13:09.782Z,100615.78
2022-11-24T05:15:41.375Z,100627.13
2022-11-24T05:18:10.633Z,100629.81
2022-11-24T05:20:37.289Z,100629.16
2022-11-24T05:23:07.851Z,100636.06
2022-11-24T05:25:36.228Z,100646.53
2022-11-24T05:28:04.965Z,100652.63
2022-11-24T05:30:32.256Z,100649.16
2022-11-24T05:32:58.807Z,100656.09
2022-11-24T05:35:25.426Z,100653.47
2022-11-24T05:37:51.888Z,100657.00
2022-11-24T05:40:18.504Z,100667.50
2022-11-24T05:42:47.960Z,100673.50
2022-11-24T05:45:18.342Z,100674.34
2022-11-24T05:47:45.343Z,100665.56
2022-11-24T05:50:14.651Z,100677.81
2022-11-24T05:52:41.084Z,100689.00
2022-11-24T05:55:08.714Z,100702.09
2022-11-24T05:57:35.142Z,100701.00
2022-11-24T06:00:01.892Z,100700.31
2022-11-24T06:02:28.329Z,100707.38
2022-11-24T06:04:54.753Z,100724.66
2022-11-24T06:07:21.216Z,100720.94
2022-11-24T06:09:47.657Z,100727.78
2022-11-24T06:12:14.155Z,100729.53
2022-11-24T06:14:40.875Z,100740.03
2022-11-24T06:17:07.736Z,100741.56
2022-11-24T06:19:37.371Z,100753.75
2022-11-24T06:22:06.393Z,100744.78
2022-11-24T06:24:33.036Z,100754.25
2022-11-24T06:26:59.636Z,100758.63
2022-11-24T06:29:25.989Z,100768.88
2022-11-24T06:31:52.524Z,100775.91
2022-11-24T06:34:18.996Z,100774.03
2022-11-24T06:36:45.322Z,100780.97
2022-11-24T06:39:11.703Z,100784.38
2022-11-24T06:41:38.109Z,100792.25
2022-11-24T06:44:05.047Z,100793.25
2022-11-24T06:46:31.542Z,100801.72
2022-11-24T06:48:59.614Z,100803.22
2022-11-24T06:51:27.071Z,100806.69
2022-11-24T06:53:53.837Z,100820.56
2022-11-24T06:56:21.093Z,100817.03
2022-11-24T06:58:50.732Z,100823.88
2022-11-24T07:01:21.991Z,100824.72
2022-11-24T07:03:48.905Z,100824.81
2022-11-24T07:06:16.369Z,100836.91
2022-11-24T07:08:43.511Z,100845.44
2022-11-24T07:11:13.174Z,100844.59
2022-11-24T07:13:39.591Z,100844.59
2022-11-24T07:16:16.352Z,100856.09
2022-11-24T07:18:44.603Z,100859.41
2022-11-24T07:21:11.454Z,100864.63
2022-11-24T07:23:38.325Z,100870.66
2022-11-24T07:26:07.027Z,100872.50
2022-11-24T07:28:36.727Z,100879.53
2022-11-24T07:31:07.833Z,100875.91
2022-11-24T07:33:34.474Z,100871.50
2022-11-24T07:36:02.067Z,100880.97
2022-11-24T07:38:29.258Z,100879.28
2022-11-24T07:41:02.207Z,100887.91
2022-11-24T07:43:31.150Z,100896.72
2022-11-24T07:45:57.601Z,100901.94
2022-11-24T07:48:23.982Z,100913.38
2022-11-24T07:50:55.522Z,100920.31
2022-11-24T07:53:22.546Z,100922.84
2022-11-24T07:55:56.525Z,100932.41
2022-11-24T07:58:23.017Z,100933.28
2022-11-24T08:00:49.422Z,100940.38
2022-11-24T08:03:16.200Z,100945.75
2022-11-24T08:06:07.931Z,100956.09
2022-11-24T08:08:33.253Z,100956.09
2022-11-24T08:11:04.752Z,100961.34
2022-11-24T08:13:31.078Z,100975.38
2022-11-24T08:15:57.414Z,100978.00
2022-11-24T08:18:24.606Z,100972.69
2022-11-24T08:20:50.970Z,100972.69
2022-11-24T08:23:17.406Z,100974.38
2022-11-24T08:25:43.764Z,100965.66
2022-11-24T08:28:10.163Z,100978.59
2022-11-24T08:30:36.580Z,100969.91
2022-11-24T08:34:04.063Z,100977.50
2022-11-24T08:36:30.800Z,100981.53
2022-11-24T08:38:58.996Z,100995.41
2022-11-24T08:41:27.072Z,100991.84
2022-11-24T08:43:54.455Z,101001.59
2022-11-24T08:46:21.241Z,101001.59
2022-11-24T08:48:52.071Z,100998.97
2022-11-24T08:51:22.277Z,100994.56
2022-11-24T08:53:48.662Z,101003.28
2022-11-24T08:56:15.203Z,101008.53
2022-11-24T08:58:41.900Z,101012.81
2022-11-24T09:01:13.861Z,101027.56
2022-11-24T09:03:46.534Z,101019.09
2022-11-24T09:06:15.797Z,101021.03
2022-11-24T09:08:42.682Z,101027.91
2022-11-24T09:11:11.873Z,101027.66
2022-11-24T09:13:38.870Z,101024.09
2022-11-24T09:16:07.949Z,101033.66
2022-11-24T09:18:34.582Z,101041.63
2022-11-24T09:21:12.947Z,101044.91
2022-11-24T09:23:40.107Z,101039.63
2022-11-24T09:26:08.279Z,101043.75
2022-11-24T09:28:35.233Z,101048.09
2022-11-24T09:31:03.645Z,101043.69
2022-11-24T09:33:31.607Z,101050.63
2022-11-24T09:35:58.609Z,101053.84
2022-11-24T09:38:25.661Z,101063.34
2022-11-24T09:40:55.877Z,101066.72
2022-11-24T09:43:29.997Z,101066.66
2022-11-24T09:46:20.131Z,101073.44
2022-11-24T09:48:50.981Z,101075.75
2022-11-24T09:51:22.344Z,101083.44
2022-11-24T09:54:03.199Z,101090.41
2022-11-24T09:56:34.377Z,101096.25
2022-11-24T09:59:06.285Z,101090.75
2022-11-24T10:01:36.977Z,101095.94
2022-11-24T10:04:06.715Z,101092.38
2022-11-24T10:06:47.986Z,101101.88
2022-11-24T10:09:24.049Z,101107.03
2022-11-24T10:11:58.670Z,101098.81
2022-11-24T10:15:02.431Z,101103.31
2022-11-24T10:17:39.165Z,101110.84
2022-11-24T10:20:14.516Z,101117.03
2022-11-24T10:23:02.269Z,101113.47
2022-11-24T10:25:50.065Z,101124.59
2022-11-24T10:28:16.575Z,101117.50
2022-11-24T10:30:43.256Z,101129.00
2022-11-24T10:33:19.570Z,101130.00
2022-11-24T10:36:07.912Z,101138.66
2022-11-24T10:38:45.580Z,101149.16
2022-11-24T10:41:20.094Z,101142.75
2022-11-24T10:43:46.552Z,101147.91
2022-11-24T10:46:23.856Z,101145.88
2022-11-24T10:48:53.580Z,101151.13
2022-11-24T10:51:41.551Z,101151.72
2022-11-24T10:54:16.964Z,101156.50
2022-11-24T10:56:45.232Z,101155.31
2022-11-24T10:59:24.569Z,101161.25
2022-11-24T11:01:54.784Z,101156.59
2022-11-24T11:04:26.643Z,101157.13
2022-11-24T11:07:07.743Z,101154.22
2022-11-24T11:09:34.398Z,101167.03
2022-11-24T11:12:36.296Z,101163.28
2022-11-24T11:14:57.364Z,101166.59
2022-11-24T11:17:35.037Z,101167.28
2022-11-24T11:20:04.541Z,101165.34
2022-11-24T11:22:34.807Z,101152.78
2022-11-24T11:25:19.985Z,101168.97
2022-11-24T11:27:46.423Z,101154.78
2022-11-24T11:35:48.459Z,101160.47
2022-11-24T11:38:15.129Z,101157.47
2022-11-24T11:40:43.748Z,101155.41
2022-11-24T11:43:26.357Z,101151.50
2022-11-24T11:46:24.505Z,101156.41
2022-11-24T11:48:50.898Z,101162.25
2022-11-24T11:51:39.021Z,101159.25
2022-11-24T11:54:27.111Z,101157.22
2022-11-24T11:57:17.497Z,101157.22
2022-11-24T11:59:49.562Z,101164.34
2022-11-24T12:02:18.997Z,101148.38
2022-11-24T12:05:19.435Z,101161.81
2022-11-24T12:07:54.373Z,101160.63
2022-11-24T12:10:33.486Z,101169.09
2022-11-24T12:13:42.606Z,101163.53
2022-11-24T12:16:18.902Z,101165.03
2022-11-24T12:19:16.093Z,101154.13
2022-11-24T12:22:09.430Z,101157.34
2022-11-24T12:25:01.748Z,101161.72
2022-11-24T12:28:19.465Z,101159.53
2022-11-24T12:31:06.822Z,101164.53
2022-11-24T12:34:01.555Z,101164.44
2022-11-24T12:36:41.247Z,101157.28
2022-11-24T12:39:32.204Z,101160.66
2022-11-24T12:42:11.715Z,101157.09
2022-11-24T12:45:06.156Z,101165.75
2022-11-24T12:47:57.226Z,101164.72
2022-11-24T12:50:27.860Z,101179.66
2022-11-24T12:53:03.859Z,101177.81
2022-11-24T12:55:33.695Z,101182.13
2022-11-24T12:58:11.231Z,101188.34
2022-11-24T13:01:00.135Z,101185.72
2022-11-24T13:03:47.817Z,101181.28
2022-11-24T13:06:30.275Z,101180.34
2022-11-24T13:08:56.910Z,101168.97
2022-11-24T13:11:23.280Z,101180.34
2022-11-24T13:14:06.225Z,101181.19
2022-11-24T13:16:41.098Z,101176.88
2022-11-24T13:19:23.242Z,101185.72
2022-11-24T13:22:00.911Z,101181.28
2022-11-24T13:24:37.038Z,101183.06
2022-11-24T13:27:16.015Z,101174.34
2022-11-24T13:29:44.921Z,101175.25
2022-11-24T13:32:11.756Z,101176.09
2022-11-24T13:34:42.559Z,101176.97
2022-11-24T13:37:34.388Z,101173.56
2022-11-24T13:40:12.064Z,101177.03
2022-11-24T13:43:02.473Z,101171.03
2022-11-24T13:45:41.550Z,101171.03
2022-11-24T13:48:20.209Z,101177.13
2022-11-24T13:50:49.929Z,101176.41
2022-11-24T13:53:29.256Z,101169.34
2022-11-24T13:55:59.489Z,101174.59
2022-11-24T13:58:36.090Z,101179.88
2022-11-24T14:01:08.503Z,101179.88
2022-11-24T14:03:38.771Z,101175.53
2022-11-24T14:06:05.866Z,101173.00
2022-11-24T14:08:38.168Z,101171.19
2022-11-24T14:11:13.078Z,101172.16
2022-11-24T14:13:39.432Z,101174.81
2022-11-24T14:16:08.757Z,101178.38
2022-11-24T14:18:40.783Z,101174.81
2022-11-24T14:21:37.751Z,101173.94
2022-11-24T14:24:24.821Z,101166.03
2022-11-24T14:26:51.600Z,101165.19
2022-11-24T14:29:23.310Z,101161.69
2022-11-24T14:31:54.772Z,101157.41
2022-11-24T14:34:23.151Z,101156.72
2022-11-24T14:36:50.742Z,101167.38
2022-11-24T14:39:19.771Z,101155.97
2022-11-24T14:42:00.318Z,101164.81
2022-11-24T14:44:35.043Z,101171.88
2022-11-24T14:47:37.238Z,101166.59
2022-11-24T14:50:13.708Z,101172.81
2022-11-24T14:52:54.693Z,101170.28
2022-11-24T14:55:31.876Z,101162.38
2022-11-24T14:57:59.624Z,101158.97
2022-11-24T15:00:29.356Z,101161.59
2022-11-24T15:03:01.758Z,101167.84
2022-11-24T15:05:51.818Z,101163.56
2022-11-24T15:08:18.517Z,101167.97
2022-11-24T15:10:45.258Z,101168.16
2022-11-24T15:13:37.063Z,101170.91
2022-11-24T15:16:15.003Z,101173.53
2022-11-24T15:18:42.887Z,101176.25
2022-11-24T15:21:15.558Z,101172.78
2022-11-24T15:24:05.338Z,101179.06
2022-11-24T15:26:36.904Z,101184.34
2022-11-24T15:29:08.217Z,101181.81
2022-11-24T15:31:34.676Z,101188.00
2022-11-24T15:34:01.531Z,101196.00
2022-11-24T15:36:28.007Z,101189.88
2022-11-24T15:38:54.351Z,101191.56
2022-11-24T15:41:25.618Z,101195.13
2022-11-24T15:43:58.705Z,101191.78
2022-11-24T15:46:26.697Z,101188.28
2022-11-24T15:48:53.878Z,101186.56
2022-11-24T15:51:20.866Z,101187.53
2022-11-24T15:53:55.776Z,101185.84
2022-11-24T15:56:34.455Z,101180.56
2022-11-24T15:59:01.649Z,101183.28
2022-11-24T16:01:31.660Z,101183.47
2022-11-24T16:03:58.302Z,101181.75
2022-11-24T16:06:25.604Z,101182.78
2022-11-24T16:08:55.388Z,101188.25
2022-11-24T16:11:22.741Z,101191.91
2022-11-24T16:13:53.018Z,101185.03
2022-11-24T16:16:20.811Z,101179.97
2022-11-24T16:18:47.288Z,101183.63
2022-11-24T16:21:13.721Z,101176.56
2022-11-24T16:23:40.161Z,101175.78
2022-11-24T16:26:06.647Z,101176.75
2022-11-24T16:28:33.028Z,101188.31
2022-11-24T16:30:59.558Z,101186.63
2022-11-24T16:33:25.974Z,101194.50
2022-11-24T16:35:52.391Z,101197.22
2022-11-24T16:38:19.989Z,101194.66
2022-11-24T16:40:59.156Z,101195.69
2022-11-24T16:43:25.517Z,101197.50
2022-11-24T16:46:17.836Z,101201.06
2022-11-24T16:48:45.635Z,101201.06
2022-11-24T16:51:13.479Z,101193.25
2022-11-24T16:53:40.598Z,101188.91
2022-11-24T16:56:07.106Z,101191.66
2022-11-24T16:58:33.542Z,101186.47
2022-11-24T17:01:07.973Z,101181.28
2022-11-24T17:03:37.826Z,101188.34
2022-11-24T17:06:06.465Z,101197.16
2022-11-24T17:08:34.818Z,101196.31
2022-11-24T17:11:08.352Z,101188.53
2022-11-24T17:13:34.689Z,101189.63
2022-11-24T17:16:08.898Z,101183.63
2022-11-24T17:18:35.638Z,101187.19
2022-11-24T17:21:07.708Z,101180.31
2022-11-24T17:23:35.780Z,101192.63
2022-11-24T17:26:03.780Z,101197.03
2022-11-24T17:28:30.252Z,101190.06
2022-11-24T17:30:57.034Z,101190.91
2022-11-24T17:33:23.577Z,101194.56
2022-11-24T17:35:49.886Z,101199.25
2022-11-24T17:38:16.250Z,101197.38
2022-11-24T17:40:48.756Z,101191.25
2022-11-24T17:43:15.150Z,101190.50
2022-11-24T17:45:41.580Z,101192.38
2022-11-24T17:48:08.324Z,101192.38
2022-11-24T17:50:34.817Z,101191.69
2022-11-24T17:53:01.126Z,101190.88
2022-11-24T17:55:27.535Z,101198.06
2022-11-24T17:57:53.901Z,101198.91
2022-11-24T18:00:20.551Z,101197.22
2022-11-24T18:02:46.973Z,101196.53
2022-11-24T18:05:13.425Z,101193.16
2022-11-24T18:07:39.833Z,101186.09
2022-11-24T18:10:06.611Z,101194.00
2022-11-24T18:12:32.931Z,101201.97
2022-11-24T18:14:59.774Z,101205.53
2022-11-24T18:17:26.137Z,101202.16
2022-11-24T18:19:52.510Z,101200.44
2022-11-24T18:22:19.128Z,101211.13
2022-11-24T18:24:54.616Z,101208.59
2022-11-24T18:27:20.950Z,101201.63
2022-11-24T18:29:50.877Z,101196.53
2022-11-24T18:32:19.837Z,101196.63
2022-11-24T18:34:46.197Z,101189.69
2022-11-24T18:37:14.723Z,101194.09
2022-11-24T18:39:42.312Z,101187.13
2022-11-24T18:42:09.458Z,101189.88
2022-11-24T18:44:36.849Z,101185.63
2022-11-24T18:47:04.443Z,101183.13
2022-11-24T18:49:31.891Z,101188.41
2022-11-24T18:51:58.746Z,101191.03
2022-11-24T18:54:27.778Z,101191.94
2022-11-24T18:56:56.683Z,101185.09
2022-11-24T18:59:26.638Z,101181.63
2022-11-24T19:01:53.165Z,101185.03
2022-11-24T19:04:19.577Z,101185.94
2022-11-24T19:06:46.151Z,101180.84
2022-11-24T19:09:15.461Z,101176.53
2022-11-24T19:11:44.123Z,101177.47
2022-11-24T19:14:13.393Z,101169.69
2022-11-24T19:16:40.756Z,101163.66
2022-11-24T19:19:07.456Z,101168.03
2022-11-24T19:21:37.034Z,101166.38
2022-11-24T19:24:05.910Z,101177.72
2022-11-24T19:26:35.824Z,101171.53
2022-11-24T19:29:03.003Z,101164.66
2022-11-24T19:31:29.344Z,101157.69
2022-11-24T19:33:57.873Z,101159.50
2022-11-24T19:36:24.410Z,101157.03
2022-11-24T19:38:55.462Z,101161.25
2022-11-24T19:41:24.532Z,101156.88
2022-11-24T19:43:53.322Z,101154.28
2022-11-24T19:46:20.583Z,101152.78
2022-11-24T19:48:54.119Z,101158.97
2022-11-24T19:51:23.108Z,101169.47
2022-11-24T19:53:49.838Z,101159.91
2022-11-24T19:56:18.904Z,101167.78
2022-11-24T19:58:46.043Z,101169.56
2022-11-24T20:01:14.680Z,101179.38
2022-11-24T20:03:42.441Z,101178.63
2022-11-24T20:06:10.970Z,101174.13
2022-11-24T20:08:39.089Z,101170.75
2022-11-24T20:11:11.067Z,101172.56
2022-11-24T20:13:39.748Z,101176.13
2022-11-24T20:16:10.605Z,101169.25
2022-11-24T20:18:42.266Z,101171.81
2022-11-24T20:21:14.914Z,101169.34
2022-11-24T20:23:41.872Z,101163.16
2022-11-24T20:26:11.800Z,101164.25
2022-11-24T20:28:38.322Z,101170.53
2022-11-24T20:31:07.483Z,101163.50
2022-11-24T20:33:35.478Z,101160.94
2022-11-24T20:36:07.036Z,101160.84
2022-11-24T20:38:34.425Z,101153.06
2022-11-24T20:41:09.034Z,101162.78
2022-11-24T20:43:36.373Z,101160.34
2022-11-24T20:46:10.776Z,101166.63
2022-11-24T20:48:38.109Z,101164.91
2022-11-24T20:51:05.669Z,101158.81
2022-11-24T20:53:32.127Z,101158.81
2022-11-24T20:56:06.398Z,101156.09
2022-11-24T20:58:35.268Z,101164.06
2022-11-24T21:01:15.952Z,101163.16
2022-11-24T21:03:45.251Z,101152.78
2022-11-24T21:06:13.049Z,101155.41
2022-11-24T21:08:41.648Z,101158.13
2022-11-24T21:11:11.071Z,101158.97
2022-11-24T21:13:39.289Z,101162.47
2022-11-24T21:16:16.979Z,101162.59
2022-11-24T21:18:44.690Z,101159.97
2022-11-24T21:21:12.521Z,101157.25
2022-11-24T21:23:39.364Z,101159.06
2022-11-24T21:26:11.505Z,101155.59
2022-11-24T21:28:42.811Z,101152.19
2022-11-24T21:31:15.432Z,101150.47
2022-11-24T21:33:44.857Z,101150.66
2022-11-24T21:36:12.757Z,101149.78
2022-11-24T21:38:39.157Z,101142.00
2022-11-24T21:41:07.122Z,101142.88
2022-11-24T21:43:34.202Z,101142.69
2022-11-24T21:46:11.337Z,101141.84
2022-11-24T21:48:38.681Z,101137.44
2022-11-24T21:51:08.480Z,101139.28
2022-11-24T21:53:36.878Z,101133.28
2022-11-24T21:56:09.807Z,101129.78
2022-11-24T21:58:36.525Z,101127.94
2022-11-24T22:01:05.174Z,101124.53
2022-11-24T22:03:31.713Z,101123.72
2022-11-24T22:05:59.817Z,101127.94
2022-11-24T22:08:27.669Z,101120.06
2022-11-24T22:10:59.539Z,101126.25
2022-11-24T22:13:25.863Z,101121.88
2022-11-24T22:16:03.254Z,101118.38
2022-11-24T22:18:31.981Z,101118.47
2022-11-24T22:20:58.759Z,101114.22
2022-11-24T22:23:25.189Z,101106.25
2022-11-24T22:25:51.595Z,101114.31
2022-11-24T22:28:18.288Z,101112.50
2022-11-24T22:30:44.603Z,101116.94
2022-11-24T22:33:11.145Z,101122.19
2022-11-24T22:35:37.497Z,101117.75
2022-11-24T22:38:03.800Z,101122.19
2022-11-24T22:40:30.146Z,101115.22
2022-11-24T22:42:58.220Z,101122.19
2022-11-24T22:45:24.705Z,101114.38
2022-11-24T22:47:55.023Z,101111.81
2022-11-24T22:50:21.497Z,101114.44
2022-11-24T22:52:49.965Z,101114.53
2022-11-24T22:55:16.484Z,101117.06
2022-11-24T22:57:47.437Z,101115.41
2022-11-24T23:00:16.210Z,101118.94
2022-11-24T23:02:42.745Z,101118.94
2022-11-24T23:05:09.543Z,101122.50
2022-11-24T23:07:36.091Z,101118.94
2022-11-24T23:10:03.026Z,101113.63
2022-11-24T23:12:29.382Z,101123.19
2022-11-24T23:14:55.709Z,101121.56
2022-11-24T23:17:22.102Z,101118.94
2022-11-24T23:19:48.549Z,101113.69
2022-11-24T23:22:14.873Z,101112.00
2022-11-24T23:24:41.229Z,101112.84
2022-11-24T23:27:07.598Z,101107.59
2022-11-24T23:29:33.942Z,101115.53
2022-11-24T23:32:00.418Z,101115.47
2022-11-24T23:36:53.230Z,101102.28
2022-11-24T23:39:19.585Z,101098.69
2022-11-24T23:41:45.964Z,101102.19
2022-11-24T23:44:12.294Z,101099.66
2022-11-24T23:46:38.691Z,101096.25
2022-11-24T23:49:05.034Z,101098.88
2022-11-24T23:51:33.305Z,101103.28
2022-11-24T23:54:00.516Z,101102.34
2022-11-24T23:56:31.419Z,101098.78
2022-11-24T23:58:58.161Z,101104.03
